Time;durP1;ratioP1;P1;durP2;ratioP2;P2;SDS_P1;SDS_P2;PMS_P1;PMS_P2;Temp;Humidity;BMP_temperature;BMP_pressure;BME280_temperature;BME280_humidity;BME280_pressure;Samples;Min_cycle;Max_cycle;Signal;HPM_P1;HPM_P2
2022/01/13 00:01:59;;;;;;;101.47;28.25;;;5.10;99.90;;;;;;5049004;28;20037;-54
2022/01/13 00:04:25;;;;;;;86.65;26.20;;;5.10;99.90;;;;;;5048528;28;20041;-54
2022/01/13 00:06:51;;;;;;;87.32;26.02;;;5.10;99.90;;;;;;5048934;28;20060;-54
2022/01/13 00:09:17;;;;;;;82.93;28.42;;;5.10;99.90;;;;;;5048935;28;20033;-51
2022/01/13 00:11:43;;;;;;;94.07;28.63;;;5.10;99.90;;;;;;5048846;28;20025;-52
2022/01/13 00:22:15;;;;;;;105.18;28.83;;;5.10;99.90;;;;;;5049504;28;20025;-56
2022/01/13 00:24:27;;;;;;;106.72;28.38;;;5.10;99.90;;;;;;5041946;28;20037;-59
2022/01/13 00:26:53;;;;;;;106.63;26.55;;;5.10;99.90;;;;;;5048374;28;20035;-52
2022/01/13 00:29:26;;;;;;;118.20;29.23;;;5.10;99.90;;;;;;5048168;28;20037;-58
2022/01/13 00:31:52;;;;;;;108.60;28.45;;;5.10;99.90;;;;;;5048724;28;20318;-58
2022/01/13 00:34:17;;;;;;;110.38;29.20;;;5.10;99.90;;;;;;5048710;28;20094;-57
2022/01/13 00:36:43;;;;;;;116.20;29.15;;;5.10;99.90;;;;;;5047789;28;20029;-57
2022/01/13 00:39:11;;;;;;;114.75;29.73;;;5.10;99.90;;;;;;5048471;28;20025;-56
2022/01/13 00:41:37;;;;;;;111.32;29.23;;;5.10;99.90;;;;;;5048102;28;20346;-56
2022/01/13 00:44:05;;;;;;;112.60;29.25;;;5.10;99.90;;;;;;5047978;28;20025;-58
2022/01/13 00:46:41;;;;;;;133.90;30.13;;;5.20;99.90;;;;;;5048808;28;20052;-57
2022/01/13 00:49:07;;;;;;;104.35;28.80;;;5.20;99.90;;;;;;5048591;28;20422;-58
2022/01/13 00:51:33;;;;;;;112.78;28.05;;;5.20;99.90;;;;;;5048285;28;20043;-58
2022/01/13 00:54:04;;;;;;;99.60;28.10;;;5.20;99.90;;;;;;5048613;28;20056;-52
2022/01/13 00:56:30;;;;;;;115.82;28.92;;;5.20;99.90;;;;;;5042149;28;20099;-57
2022/01/13 00:58:56;;;;;;;126.03;30.50;;;5.20;99.90;;;;;;5048125;28;20053;-59
2022/01/13 01:01:22;;;;;;;103.97;28.25;;;5.20;99.90;;;;;;5048803;28;20065;-54
2022/01/13 01:03:48;;;;;;;122.82;29.23;;;5.20;99.90;;;;;;5048370;28;20126;-58
2022/01/13 01:06:13;;;;;;;110.90;27.80;;;5.20;99.90;;;;;;5048122;28;20021;-59
2022/01/13 01:08:40;;;;;;;107.88;28.88;;;5.20;99.90;;;;;;5047940;28;20025;-59
2022/01/13 01:11:06;;;;;;;116.85;28.65;;;5.20;99.90;;;;;;5048363;28;20072;-58
2022/01/13 01:13:34;;;;;;;136.27;32.80;;;5.20;99.90;;;;;;5049098;28;20067;-57
2022/01/13 01:16:06;;;;;;;113.93;27.88;;;5.20;99.90;;;;;;5049144;28;20040;-59
2022/01/13 01:18:52;;;;;;;118.18;27.83;;;5.30;99.90;;;;;;5047657;28;20021;-59
2022/01/13 01:21:36;;;;;;;131.02;30.40;;;5.30;99.90;;;;;;5047652;28;20048;-59
2022/01/13 01:26:48;;;;;;;122.60;28.30;;;5.30;99.90;;;;;;5049032;28;20037;-54
2022/01/13 01:31:49;;;;;;;138.18;30.92;;;5.30;99.90;;;;;;5048019;28;20032;-58
2022/01/13 01:36:52;;;;;;;160.88;35.63;;;5.30;99.90;;;;;;5048481;28;20499;-56
2022/01/13 01:39:18;;;;;;;141.10;33.38;;;5.30;99.90;;;;;;5049100;28;20032;-58
2022/01/13 01:41:47;;;;;;;149.02;32.15;;;5.30;99.90;;;;;;5048200;28;20107;-59
2022/01/13 01:44:18;;;;;;;156.88;33.50;;;5.30;99.90;;;;;;5049120;28;20063;-56
2022/01/13 01:46:46;;;;;;;172.37;34.53;;;5.30;99.90;;;;;;5048201;28;20510;-57
2022/01/13 01:49:22;;;;;;;171.23;34.22;;;5.20;99.90;;;;;;5049022;28;20436;-56
2022/01/13 01:51:54;;;;;;;162.18;33.10;;;5.20;99.90;;;;;;5051509;28;20466;-58
2022/01/13 01:54:19;;;;;;;150.63;31.70;;;5.20;99.90;;;;;;5052604;28;20106;-56
2022/01/13 01:56:46;;;;;;;147.07;33.17;;;5.20;99.90;;;;;;5051323;28;20064;-59
2022/01/13 01:59:16;;;;;;;162.43;34.17;;;5.20;99.90;;;;;;5050311;28;20037;-56
2022/01/13 02:01:44;;;;;;;156.13;34.65;;;5.20;99.90;;;;;;5052241;28;20041;-56
2022/01/13 02:04:10;;;;;;;195.45;38.22;;;5.20;99.90;;;;;;5050891;28;20025;-57
2022/01/13 02:06:37;;;;;;;169.82;34.92;;;5.20;99.90;;;;;;5052127;28;20029;-51
2022/01/13 02:09:05;;;;;;;178.32;33.78;;;5.20;99.90;;;;;;5051058;28;20040;-54
2022/01/13 02:11:40;;;;;;;187.13;35.53;;;5.20;99.90;;;;;;5051979;28;20041;-53
2022/01/13 02:14:21;;;;;;;161.15;35.25;;;5.20;99.90;;;;;;5051215;28;20095;-54
2022/01/13 02:16:50;;;;;;;169.27;35.03;;;5.30;99.90;;;;;;5051645;28;20033;-53
2022/01/13 02:19:17;;;;;;;175.05;34.28;;;5.30;99.90;;;;;;5052393;28;20052;-52
2022/01/13 02:21:43;;;;;;;177.60;35.63;;;5.30;99.90;;;;;;5054300;28;20033;-54
2022/01/13 02:24:09;;;;;;;151.35;35.83;;;5.20;99.90;;;;;;5056613;28;20029;-56
2022/01/13 02:26:34;;;;;;;198.05;38.17;;;5.20;99.90;;;;;;5051281;28;20039;-54
2022/01/13 02:29:00;;;;;;;165.93;34.47;;;5.20;99.90;;;;;;5051662;28;20116;-56
2022/01/13 02:31:27;;;;;;;145.88;31.30;;;5.30;99.90;;;;;;5050742;28;20064;-52
2022/01/13 02:33:53;;;;;;;166.30;34.97;;;5.30;99.90;;;;;;5050869;28;20037;-61
2022/01/13 02:36:20;;;;;;;196.15;36.63;;;5.30;99.90;;;;;;5068205;28;20033;-56
2022/01/13 02:38:51;;;;;;;194.43;35.03;;;5.30;99.90;;;;;;5050807;28;20040;-49
2022/01/13 02:41:17;;;;;;;190.38;38.25;;;5.30;99.90;;;;;;5051844;28;20045;-53
2022/01/13 02:43:44;;;;;;;200.18;37.17;;;5.30;99.90;;;;;;5050641;28;20017;-54
2022/01/13 02:46:31;;;;;;;198.30;36.75;;;5.30;99.90;;;;;;5050818;28;20470;-49
2022/01/13 02:48:57;;;;;;;191.23;36.42;;;5.30;99.90;;;;;;5050388;28;20059;-53
2022/01/13 02:51:23;;;;;;;219.88;37.63;;;5.30;99.90;;;;;;5050106;28;20116;-57
2022/01/13 02:53:48;;;;;;;195.73;36.47;;;5.30;99.90;;;;;;5050798;28;20115;-60
2022/01/13 02:56:14;;;;;;;162.40;33.15;;;5.40;99.90;;;;;;5051266;28;20033;-55
2022/01/13 02:58:40;;;;;;;185.18;35.83;;;5.40;99.90;;;;;;5050213;28;20166;-57
2022/01/13 03:01:06;;;;;;;159.73;34.55;;;5.40;99.90;;;;;;5049041;28;20033;-56
2022/01/13 03:03:34;;;;;;;157.30;32.38;;;5.40;99.90;;;;;;5050526;28;20382;-56
2022/01/13 03:06:06;;;;;;;161.10;33.67;;;5.40;99.90;;;;;;5051105;28;20025;-57
2022/01/13 03:08:32;;;;;;;145.82;33.42;;;5.40;99.90;;;;;;5049154;28;20090;-57
2022/01/13 03:10:57;;;;;;;144.18;33.15;;;5.40;99.90;;;;;;5050510;28;20490;-56
2022/01/13 03:13:24;;;;;;;143.40;33.78;;;5.50;99.90;;;;;;5050233;28;20113;-58
2022/01/13 03:15:49;;;;;;;143.15;32.10;;;5.50;99.90;;;;;;5050046;28;20091;-55
2022/01/13 03:18:15;;;;;;;150.35;33.42;;;5.50;99.90;;;;;;5049839;28;20040;-51
2022/01/13 03:20:41;;;;;;;144.93;34.22;;;5.50;99.90;;;;;;5050395;28;20020;-51
2022/01/13 03:23:06;;;;;;;141.43;32.35;;;5.50;99.90;;;;;;5050085;28;20104;-54
2022/01/13 03:25:32;;;;;;;138.05;33.00;;;5.50;99.90;;;;;;5051125;28;20059;-53
2022/01/13 03:28:05;;;;;;;116.40;30.63;;;5.50;99.90;;;;;;5049890;28;20063;-54
2022/01/13 03:30:32;;;;;;;121.97;30.80;;;5.50;99.90;;;;;;5042684;28;20029;-56
2022/01/13 03:32:59;;;;;;;142.10;32.75;;;5.60;99.90;;;;;;5048996;28;20040;-57
2022/01/13 03:35:25;;;;;;;150.90;33.80;;;5.60;99.90;;;;;;5050507;28;20021;-57
2022/01/13 03:37:50;;;;;;;136.90;33.78;;;5.60;99.90;;;;;;5049711;28;20037;-56
2022/01/13 03:40:16;;;;;;;131.82;33.30;;;5.50;99.90;;;;;;5048855;28;20443;-57
2022/01/13 03:42:42;;;;;;;143.38;33.60;;;5.50;99.90;;;;;;5049538;28;20052;-57
2022/01/13 03:45:08;;;;;;;124.65;33.83;;;5.50;99.90;;;;;;5049353;28;20475;-57
2022/01/13 03:47:33;;;;;;;118.13;33.08;;;5.60;99.90;;;;;;5049278;28;20495;-58
2022/01/13 03:49:59;;;;;;;138.98;32.30;;;5.60;99.90;;;;;;5044972;28;20044;-58
2022/01/13 03:52:24;;;;;;;111.15;30.17;;;5.60;99.90;;;;;;5049839;28;20040;-57
2022/01/13 03:55:28;;;;;;;108.95;29.85;;;5.60;99.90;;;;;;5049374;28;20033;-56
2022/01/13 03:58:24;;;;;;;106.20;28.35;;;5.60;99.90;;;;;;5049885;28;20063;-58
2022/01/13 04:03:25;;;;;;;96.00;26.80;;;5.60;99.90;;;;;;5185252;23;20051;-52
2022/01/13 04:06:08;;;;;;;91.10;27.05;;;5.60;99.90;;;;;;4980339;28;20030;-54
2022/01/13 04:08:34;;;;;;;93.88;28.10;;;5.70;99.90;;;;;;4976365;28;20041;-53
2022/01/13 04:11:06;;;;;;;96.75;28.55;;;5.60;99.90;;;;;;4981002;28;20034;-56
2022/01/13 04:13:57;;;;;;;92.00;28.15;;;5.70;99.90;;;;;;4982695;28;20499;-58
2022/01/13 04:16:29;;;;;;;104.43;27.83;;;5.70;99.90;;;;;;4978658;28;20026;-59
2022/01/13 04:19:00;;;;;;;108.55;28.15;;;5.60;99.90;;;;;;4980739;28;20120;-59
2022/01/13 04:21:25;;;;;;;109.60;29.50;;;5.70;99.90;;;;;;4978736;28;20500;-57
2022/01/13 04:23:54;;;;;;;99.53;30.30;;;5.70;99.90;;;;;;4980058;28;20061;-59
2022/01/13 04:26:27;;;;;;;100.18;30.02;;;5.70;99.90;;;;;;4979235;28;20799;-59
2022/01/13 04:29:01;;;;;;;111.00;29.92;;;5.70;99.90;;;;;;4981463;28;20046;-56
2022/01/13 04:31:26;;;;;;;98.18;28.40;;;5.70;99.90;;;;;;4985421;28;20035;-58
2022/01/13 04:33:52;;;;;;;92.70;26.63;;;5.70;99.90;;;;;;4976796;28;20057;-59
2022/01/13 04:36:18;;;;;;;91.90;29.40;;;5.70;99.90;;;;;;4979345;28;20463;-58
2022/01/13 04:38:43;;;;;;;106.28;28.05;;;5.70;99.90;;;;;;4982075;28;20066;-60
2022/01/13 04:41:09;;;;;;;100.72;28.00;;;5.70;99.90;;;;;;4973685;28;20445;-59
2022/01/13 04:43:34;;;;;;;104.72;29.55;;;5.70;99.90;;;;;;4957902;28;20026;-58
2022/01/13 04:46:00;;;;;;;97.75;29.90;;;5.70;99.90;;;;;;4981071;28;20476;-59
2022/01/13 04:48:26;;;;;;;99.28;28.85;;;5.60;99.90;;;;;;4975635;28;20444;-59
2022/01/13 04:50:52;;;;;;;101.30;28.85;;;5.70;99.90;;;;;;4981340;28;20050;-60
2022/01/13 04:53:18;;;;;;;100.22;28.27;;;5.60;99.90;;;;;;4976801;28;20424;-59
2022/01/13 04:55:57;;;;;;;91.47;27.13;;;5.70;99.90;;;;;;4981973;28;20015;-51
2022/01/13 04:58:23;;;;;;;83.95;25.98;;;5.70;99.90;;;;;;4982285;28;20047;-57
2022/01/13 05:00:49;;;;;;;90.90;26.25;;;5.60;99.90;;;;;;4983175;28;20508;-56
2022/01/13 05:03:15;;;;;;;113.60;28.55;;;5.60;99.90;;;;;;4976827;28;20035;-54
2022/01/13 05:05:40;;;;;;;101.20;27.13;;;5.70;99.90;;;;;;4945877;28;1112931;-54
2022/01/13 05:08:06;;;;;;;93.57;26.35;;;5.70;99.90;;;;;;4980832;28;20042;-50
2022/01/13 05:10:32;;;;;;;84.18;25.30;;;5.70;99.90;;;;;;4982633;28;20110;-53
2022/01/13 05:12:58;;;;;;;85.72;24.23;;;5.70;99.90;;;;;;4977875;28;20026;-56
2022/01/13 05:15:27;;;;;;;91.10;24.52;;;5.70;99.90;;;;;;4981025;28;20038;-57
2022/01/13 05:20:37;;;;;;;89.15;26.67;;;5.70;99.90;;;;;;4980564;28;20381;-50
2022/01/13 05:23:04;;;;;;;92.60;26.73;;;5.70;99.90;;;;;;4981680;28;20460;-49
2022/01/13 05:25:29;;;;;;;98.47;26.63;;;5.70;99.90;;;;;;4984175;28;20113;-55
2022/01/13 05:27:55;;;;;;;98.43;26.25;;;5.70;99.90;;;;;;4990057;28;20161;-51
2022/01/13 05:30:21;;;;;;;88.85;26.15;;;5.70;99.90;;;;;;4983683;28;20074;-49
2022/01/13 05:32:46;;;;;;;89.22;24.25;;;5.70;99.90;;;;;;4988616;28;20499;-54
2022/01/13 05:35:12;;;;;;;85.13;26.52;;;5.70;99.90;;;;;;4982610;28;20030;-52
2022/01/13 05:37:38;;;;;;;96.32;27.20;;;5.70;99.90;;;;;;4965408;28;20174;-50
2022/01/13 05:40:04;;;;;;;97.07;26.95;;;5.80;99.90;;;;;;4989107;28;20105;-50
2022/01/13 05:42:30;;;;;;;95.70;28.05;;;5.80;99.90;;;;;;4982981;28;20043;-56
2022/01/13 05:44:59;;;;;;;98.10;27.63;;;5.80;99.90;;;;;;4987934;28;20038;-52
2022/01/13 05:47:24;;;;;;;87.43;25.88;;;5.80;99.90;;;;;;4970022;28;20043;-59
2022/01/13 05:49:50;;;;;;;95.97;27.58;;;5.80;99.90;;;;;;4975188;28;20044;-58
2022/01/13 05:52:16;;;;;;;90.57;27.60;;;5.80;99.90;;;;;;4982723;28;20034;-50
2022/01/13 05:54:42;;;;;;;86.18;25.63;;;5.80;99.90;;;;;;4960083;28;20058;-62
2022/01/13 05:57:08;;;;;;;83.90;24.58;;;5.90;99.90;;;;;;4985620;28;20034;-51
2022/01/13 05:59:35;;;;;;;90.25;25.60;;;5.90;99.90;;;;;;4984927;28;20030;-50
2022/01/13 06:02:00;;;;;;;88.93;27.02;;;5.90;99.90;;;;;;4983856;28;20042;-55
2022/01/13 06:04:26;;;;;;;79.22;25.80;;;5.90;99.90;;;;;;4981646;28;20044;-51
2022/01/13 06:06:51;;;;;;;100.85;28.80;;;5.90;99.90;;;;;;4984608;28;20367;-49
2022/01/13 06:09:17;;;;;;;82.28;27.40;;;5.90;99.90;;;;;;4967577;28;20022;-51
2022/01/13 06:11:52;;;;;;;82.57;25.42;;;6.00;99.90;;;;;;4968474;28;20084;-55
2022/01/13 06:14:18;;;;;;;86.65;26.02;;;6.00;99.90;;;;;;4984782;28;20480;-54
2022/01/13 06:16:43;;;;;;;87.50;25.67;;;6.00;99.90;;;;;;4970907;28;20067;-54
2022/01/13 06:19:09;;;;;;;87.97;26.10;;;6.00;99.90;;;;;;4976020;28;20058;-55
2022/01/13 06:21:35;;;;;;;84.22;26.30;;;6.00;99.90;;;;;;4978878;28;20030;-56
2022/01/13 06:24:00;;;;;;;78.93;23.88;;;6.00;99.90;;;;;;4966420;28;20400;-54
2022/01/13 06:26:27;;;;;;;91.57;27.73;;;6.00;99.90;;;;;;4968467;28;20027;-50
2022/01/13 06:28:53;;;;;;;80.38;24.83;;;6.10;99.90;;;;;;4973292;28;20027;-56
2022/01/13 06:31:19;;;;;;;92.15;27.17;;;6.10;99.90;;;;;;4982851;28;20121;-53
2022/01/13 06:33:44;;;;;;;73.60;25.67;;;6.10;99.90;;;;;;4975565;28;20049;-50
2022/01/13 06:36:10;;;;;;;76.07;23.20;;;6.10;99.90;;;;;;4967671;28;20042;-54
2022/01/13 06:38:36;;;;;;;88.57;26.08;;;6.10;99.90;;;;;;4985548;28;20081;-56
2022/01/13 06:41:02;;;;;;;83.13;27.23;;;6.10;99.90;;;;;;4980577;28;20050;-53
2022/01/13 06:43:28;;;;;;;80.13;25.40;;;6.10;99.90;;;;;;4980440;28;20031;-59
2022/01/13 06:45:54;;;;;;;71.20;24.58;;;6.10;99.90;;;;;;4983376;28;20034;-56
2022/01/13 06:48:20;;;;;;;69.55;23.67;;;6.10;99.90;;;;;;4982384;28;20037;-57
2022/01/13 06:50:46;;;;;;;71.43;24.23;;;6.20;99.90;;;;;;4984362;28;20212;-59
2022/01/13 06:53:11;;;;;;;83.18;24.85;;;6.20;99.90;;;;;;4968887;28;20088;-58
2022/01/13 06:55:37;;;;;;;70.05;24.83;;;6.20;99.90;;;;;;4985333;28;20462;-57
2022/01/13 06:58:03;;;;;;;72.30;22.98;;;6.20;99.90;;;;;;4979654;28;20031;-58
2022/01/13 07:00:29;;;;;;;76.18;23.75;;;6.20;99.90;;;;;;4978530;28;20045;-51
2022/01/13 07:02:58;;;;;;;59.75;22.77;;;6.20;99.90;;;;;;4979482;28;20713;-52
2022/01/13 07:05:24;;;;;;;67.45;23.20;;;6.20;99.90;;;;;;4979875;28;20122;-54
2022/01/13 07:07:49;;;;;;;65.55;22.85;;;6.20;99.90;;;;;;4980383;28;20102;-52
2022/01/13 07:10:15;;;;;;;67.03;22.42;;;6.30;99.90;;;;;;4978435;28;20039;-50
2022/01/13 07:12:41;;;;;;;68.03;23.35;;;6.30;99.90;;;;;;4984084;28;20031;-57
2022/01/13 07:15:08;;;;;;;66.63;21.60;;;6.30;99.90;;;;;;4980141;28;20091;-50
2022/01/13 07:17:34;;;;;;;57.05;21.38;;;6.30;99.90;;;;;;4952990;28;20039;-53
2022/01/13 07:20:00;;;;;;;60.22;23.17;;;6.30;99.90;;;;;;4985295;28;20381;-53
2022/01/13 07:22:26;;;;;;;59.10;21.75;;;6.30;99.90;;;;;;4969627;28;20051;-53
2022/01/13 07:24:52;;;;;;;61.88;22.05;;;6.30;99.90;;;;;;4973749;28;20072;-51
2022/01/13 07:27:17;;;;;;;58.50;21.10;;;6.30;99.90;;;;;;4978370;28;20035;-49
2022/01/13 07:29:43;;;;;;;67.65;23.98;;;6.30;99.90;;;;;;4976722;28;20031;-48
2022/01/13 07:32:12;;;;;;;63.17;22.58;;;6.30;99.90;;;;;;4961401;28;20060;-54
2022/01/13 07:34:39;;;;;;;59.80;22.42;;;6.30;99.90;;;;;;4978532;28;20106;-48
2022/01/13 07:37:05;;;;;;;65.95;23.17;;;6.30;99.90;;;;;;4986721;28;20030;-49
2022/01/13 07:39:31;;;;;;;62.45;21.40;;;6.30;99.90;;;;;;4984497;28;20375;-56
2022/01/13 07:41:57;;;;;;;62.78;21.38;;;6.30;99.90;;;;;;4973714;28;20031;-50
2022/01/13 07:44:23;;;;;;;55.20;21.05;;;6.30;99.90;;;;;;4970893;28;20116;-55
2022/01/13 07:46:48;;;;;;;67.85;21.85;;;6.30;99.90;;;;;;4977279;28;20035;-51
2022/01/13 07:49:15;;;;;;;59.72;21.95;;;6.30;99.90;;;;;;4955776;28;20485;-52
2022/01/13 07:51:41;;;;;;;64.75;22.65;;;6.30;99.90;;;;;;4975690;28;20111;-56
2022/01/13 07:54:06;;;;;;;62.53;22.67;;;6.30;99.90;;;;;;4986956;28;20080;-58
2022/01/13 07:56:32;;;;;;;59.28;20.05;;;6.30;99.90;;;;;;4984532;28;20169;-58
2022/01/13 07:58:58;;;;;;;61.38;23.48;;;6.30;99.90;;;;;;4985528;28;20111;-58
2022/01/13 08:01:23;;;;;;;49.80;20.45;;;6.30;99.90;;;;;;4983450;28;20038;-56
2022/01/13 08:03:49;;;;;;;55.47;21.25;;;6.40;99.90;;;;;;4973053;28;20071;-54
2022/01/13 08:06:17;;;;;;;58.60;21.90;;;6.40;99.90;;;;;;4978022;28;20108;-60
2022/01/13 08:08:43;;;;;;;64.10;22.23;;;6.40;99.90;;;;;;4958892;28;20134;-58
2022/01/13 08:11:09;;;;;;;56.78;21.65;;;6.30;99.90;;;;;;4980532;28;20551;-58
2022/01/13 08:13:36;;;;;;;52.00;18.73;;;6.30;99.90;;;;;;4969010;28;20019;-58
2022/01/13 08:16:06;;;;;;;59.33;20.92;;;6.30;99.90;;;;;;4978380;28;20416;-58
2022/01/13 08:21:17;;;;;;;61.78;22.02;;;6.20;99.90;;;;;;4982603;28;20077;-60
2022/01/13 08:23:43;;;;;;;57.28;22.35;;;6.20;99.90;;;;;;4979484;28;20023;-60
2022/01/13 08:26:09;;;;;;;55.90;22.08;;;6.20;99.90;;;;;;4986116;28;20049;-59
2022/01/13 08:28:35;;;;;;;60.38;21.17;;;6.20;99.90;;;;;;4976892;28;20023;-60
2022/01/13 08:31:01;;;;;;;61.33;21.33;;;6.20;99.90;;;;;;4985048;28;20030;-60
2022/01/13 08:33:27;;;;;;;62.33;22.42;;;6.20;99.90;;;;;;4977461;28;20062;-60
2022/01/13 08:35:53;;;;;;;64.63;23.10;;;6.10;99.90;;;;;;4977888;28;20070;-57
2022/01/13 08:38:20;;;;;;;60.28;22.17;;;6.20;99.90;;;;;;4977575;28;20639;-60
2022/01/13 08:40:47;;;;;;;59.53;23.00;;;6.20;99.90;;;;;;4977889;28;20158;-60
2022/01/13 08:43:14;;;;;;;62.22;23.83;;;6.20;99.90;;;;;;4981157;28;20052;-59
2022/01/13 08:45:41;;;;;;;62.42;24.40;;;6.10;99.90;;;;;;4972964;28;20034;-59
2022/01/13 08:48:06;;;;;;;64.55;26.10;;;6.10;99.90;;;;;;4976297;28;20431;-57
2022/01/13 08:50:32;;;;;;;67.00;24.65;;;6.10;99.90;;;;;;4984622;28;20069;-58
2022/01/13 08:52:58;;;;;;;75.07;26.20;;;6.10;99.90;;;;;;4951350;28;20122;-57
2022/01/13 08:55:23;;;;;;;64.65;24.65;;;6.10;99.90;;;;;;4983435;28;20038;-60
2022/01/13 08:57:49;;;;;;;66.60;22.63;;;6.10;99.90;;;;;;4974893;28;20215;-60
2022/01/13 09:00:15;;;;;;;74.43;25.83;;;6.10;99.90;;;;;;4984618;28;20026;-60
2022/01/13 09:02:42;;;;;;;67.50;23.92;;;6.10;99.90;;;;;;4979924;28;20775;-60
2022/01/13 09:05:09;;;;;;;66.70;25.45;;;6.10;99.90;;;;;;4973861;28;20039;-58
2022/01/13 09:07:34;;;;;;;69.80;25.08;;;6.10;99.90;;;;;;4976917;28;20065;-58
2022/01/13 09:10:00;;;;;;;76.38;26.45;;;6.00;99.90;;;;;;4983848;28;20070;-58
2022/01/13 09:12:25;;;;;;;73.75;24.83;;;6.00;99.90;;;;;;4974494;28;20037;-60
2022/01/13 09:14:58;;;;;;;69.05;24.90;;;6.00;99.90;;;;;;4984226;28;20092;-58
2022/01/13 09:17:24;;;;;;;;;;;6.00;99.90;;;;;;4977176;28;20512;-57
2022/01/13 09:19:51;;;;;;;63.55;24.17;;;5.90;99.90;;;;;;4981875;28;19914;-59
2022/01/13 09:22:18;;;;;;;61.95;22.88;;;5.90;99.90;;;;;;4975814;28;20027;-55
2022/01/13 09:24:43;;;;;;;68.43;26.27;;;5.90;99.90;;;;;;4984797;28;20050;-55
2022/01/13 09:27:09;;;;;;;62.50;21.80;;;5.90;99.90;;;;;;4974524;28;20058;-57
2022/01/13 09:29:35;;;;;;;64.65;24.17;;;5.90;99.90;;;;;;4973744;28;20035;-55
2022/01/13 09:32:01;;;;;;;69.07;25.23;;;5.90;99.90;;;;;;4975994;28;20090;-54
2022/01/13 09:34:27;;;;;;;63.63;24.30;;;5.90;99.90;;;;;;4982540;28;20439;-58
2022/01/13 09:36:52;;;;;;;67.57;24.40;;;5.90;99.90;;;;;;4979333;28;20106;-59
2022/01/13 09:39:18;;;;;;;65.82;24.95;;;5.90;99.90;;;;;;4983554;28;20019;-58
2022/01/13 09:41:44;;;;;;;64.72;25.50;;;5.90;99.90;;;;;;4972366;28;20496;-57
2022/01/13 09:44:13;;;;;;;68.20;25.02;;;5.90;99.90;;;;;;4973275;28;20081;-57
2022/01/13 09:46:39;;;;;;;66.03;24.77;;;5.90;99.90;;;;;;4971965;28;20043;-57
2022/01/13 09:49:06;;;;;;;60.55;24.23;;;6.00;99.90;;;;;;4980996;28;20023;-53
2022/01/13 09:51:33;;;;;;;63.00;22.85;;;6.00;99.90;;;;;;4957842;28;20027;-59
2022/01/13 09:53:59;;;;;;;63.05;23.25;;;6.00;99.90;;;;;;4982826;28;20060;-58
2022/01/13 09:56:25;;;;;;;58.22;22.55;;;6.00;99.90;;;;;;4973460;28;20038;-58
2022/01/13 09:58:51;;;;;;;60.47;21.88;;;6.00;99.90;;;;;;4980585;28;20039;-60
2022/01/13 10:01:16;;;;;;;53.03;20.70;;;6.00;99.90;;;;;;4986583;28;20141;-58
2022/01/13 10:03:42;;;;;;;52.60;20.15;;;6.00;99.90;;;;;;4978217;28;20022;-57
2022/01/13 10:06:19;;;;;;;56.35;21.17;;;6.10;99.90;;;;;;4976658;28;20546;-59
2022/01/13 10:08:48;;;;;;;49.67;20.80;;;6.10;99.90;;;;;;4980662;28;20022;-58
2022/01/13 10:11:53;;;;;;;57.67;19.77;;;6.10;99.90;;;;;;4973388;28;20031;-61
2022/01/13 10:17:16;;;;;;;47.40;19.40;;;6.20;99.90;;;;;;4971650;28;20035;-60
2022/01/13 10:19:45;;;;;;;55.55;20.73;;;6.20;99.90;;;;;;4973228;28;20126;-59
2022/01/13 10:22:16;;;;;;;52.22;19.23;;;6.20;99.90;;;;;;4967262;28;20530;-60
2022/01/13 10:24:45;;;;;;;42.33;16.53;;;6.20;99.90;;;;;;4982889;28;20060;-59
2022/01/13 10:27:13;;;;;;;55.33;20.50;;;6.20;99.90;;;;;;4984903;28;20038;-59
2022/01/13 10:29:54;;;;;;;52.95;21.85;;;6.20;99.90;;;;;;4979666;28;20026;-58
2022/01/13 10:32:47;;;;;;;53.50;19.85;;;6.20;99.90;;;;;;4980300;28;20061;-56
2022/01/13 10:35:16;;;;;;;58.10;20.73;;;6.20;99.90;;;;;;4979389;28;20527;-53
2022/01/13 10:37:44;;;;;;;60.05;21.50;;;6.20;99.90;;;;;;4973223;28;20376;-61
2022/01/13 10:40:23;;;;;;;63.20;23.05;;;6.20;99.90;;;;;;4983210;28;20034;-60
2022/01/13 10:45:20;;;;;;;59.78;22.50;;;6.10;99.90;;;;;;4972682;28;20492;-57
2022/01/13 10:47:53;;;;;;;57.50;21.70;;;6.10;99.90;;;;;;4974138;28;20109;-60
2022/01/13 10:50:21;;;;;;;65.00;22.48;;;6.20;99.90;;;;;;4981649;28;20030;-58
2022/01/13 10:52:49;;;;;;;60.33;23.05;;;6.20;99.90;;;;;;4981042;28;20117;-57
2022/01/13 10:55:22;;;;;;;64.57;21.48;;;6.20;99.90;;;;;;4982982;28;20109;-58
2022/01/13 10:57:49;;;;;;;56.78;21.05;;;6.10;99.90;;;;;;4978282;28;20035;-57
2022/01/13 11:00:17;;;;;;;55.50;19.20;;;6.20;99.90;;;;;;4989040;28;20038;-54
2022/01/13 11:02:57;;;;;;;61.92;21.27;;;6.10;99.90;;;;;;4979339;28;20058;-57
2022/01/13 11:05:27;;;;;;;59.80;21.38;;;6.00;99.90;;;;;;4981194;28;20035;-56
2022/01/13 11:07:52;;;;;;;64.65;21.38;;;6.10;99.90;;;;;;4982935;28;20026;-55
2022/01/13 11:10:19;;;;;;;61.95;20.33;;;6.10;99.90;;;;;;4983713;28;20374;-60
2022/01/13 11:12:54;;;;;;;66.88;20.75;;;6.10;99.90;;;;;;4965016;28;20097;-54
2022/01/13 11:15:20;;;;;;;56.95;20.30;;;6.10;99.90;;;;;;4982598;28;20093;-55
2022/01/13 11:17:45;;;;;;;64.97;21.40;;;6.10;99.90;;;;;;4965556;28;20018;-56
2022/01/13 11:20:14;;;;;;;60.08;21.50;;;6.10;99.90;;;;;;4967199;28;20385;-56
2022/01/13 11:22:45;;;;;;;64.90;22.63;;;6.10;99.90;;;;;;4980929;28;20044;-58
2022/01/13 11:25:13;;;;;;;67.35;22.48;;;6.10;99.90;;;;;;4975190;28;20027;-56
2022/01/13 11:27:39;;;;;;;66.45;22.55;;;6.10;99.90;;;;;;4982510;28;20037;-55
2022/01/13 11:30:12;;;;;;;51.33;20.27;;;6.10;99.90;;;;;;4987008;28;20534;-55
2022/01/13 11:32:40;;;;;;;64.18;22.95;;;6.10;99.90;;;;;;4983977;28;20077;-55
2022/01/13 11:35:07;;;;;;;61.03;20.73;;;6.10;99.90;;;;;;4981613;28;20022;-60
2022/01/13 11:37:34;;;;;;;57.58;21.60;;;6.10;99.90;;;;;;4979018;28;20027;-58
2022/01/13 11:40:00;;;;;;;60.60;21.80;;;6.10;99.90;;;;;;4986625;28;20244;-57
2022/01/13 11:42:26;;;;;;;54.55;19.10;;;6.20;99.90;;;;;;4958450;28;20421;-54
2022/01/13 11:45:11;;;;;;;55.75;20.25;;;6.10;99.90;;;;;;4976948;28;20038;-54
2022/01/13 11:47:37;;;;;;;52.95;19.52;;;6.20;99.90;;;;;;4964586;28;20084;-59
2022/01/13 11:50:18;;;;;;;56.38;20.15;;;6.20;99.90;;;;;;4963165;28;20035;-55
2022/01/13 11:52:52;;;;;;;54.10;20.63;;;6.20;99.90;;;;;;4965820;28;20037;-54
2022/01/13 11:55:35;;;;;;;50.75;18.45;;;6.20;99.90;;;;;;4976254;28;20035;-54
2022/01/13 11:58:17;;;;;;;50.50;17.40;;;6.30;99.90;;;;;;4959007;28;20034;-56
2022/01/13 12:00:45;;;;;;;52.40;19.77;;;6.20;99.90;;;;;;4975939;28;20034;-56
2022/01/13 12:03:32;;;;;;;53.00;19.35;;;6.20;99.90;;;;;;4972626;28;20069;-56
2022/01/13 12:05:59;;;;;;;58.03;20.13;;;6.20;99.90;;;;;;4960656;28;20403;-55
2022/01/13 12:08:45;;;;;;;52.35;20.23;;;6.20;99.90;;;;;;4987929;28;20026;-58
2022/01/13 12:11:50;;;;;;;48.42;18.23;;;6.20;99.90;;;;;;4977853;28;20497;-58
2022/01/13 12:14:27;;;;;;;48.20;18.70;;;6.30;99.90;;;;;;4975069;28;20038;-59
2022/01/13 12:16:56;;;;;;;45.35;18.33;;;6.20;99.90;;;;;;4969680;28;20031;-55
2022/01/13 12:19:33;;;;;;;53.70;19.52;;;6.30;99.90;;;;;;4979513;28;20042;-55
2022/01/13 12:22:03;;;;;;;49.60;18.73;;;6.20;99.90;;;;;;4977834;28;20043;-59
2022/01/13 12:25:03;;;;;;;48.08;18.25;;;6.30;99.90;;;;;;4979420;28;20455;-60
2022/01/13 12:27:48;;;;;;;52.08;19.92;;;6.30;99.90;;;;;;4946585;28;20049;-57
2022/01/13 12:30:18;;;;;;;52.20;20.20;;;6.30;99.90;;;;;;4982531;28;20513;-56
2022/01/13 12:32:59;;;;;;;52.38;18.50;;;6.30;99.90;;;;;;4987159;28;20396;-59
2022/01/13 12:35:29;;;;;;;51.08;19.33;;;6.30;99.90;;;;;;4975068;28;20030;-55
2022/01/13 12:38:05;;;;;;;59.13;20.60;;;6.30;99.90;;;;;;4975856;28;20101;-55
2022/01/13 12:40:48;;;;;;;61.70;21.27;;;6.20;99.90;;;;;;4982547;28;20326;-57
2022/01/13 12:43:32;;;;;;;57.80;21.85;;;6.30;99.90;;;;;;4980727;28;20038;-59
2022/01/13 12:45:59;;;;;;;61.30;21.13;;;6.30;99.90;;;;;;4975348;28;20031;-55
2022/01/13 12:48:29;;;;;;;64.15;22.85;;;6.30;99.90;;;;;;4979792;28;20035;-55
2022/01/13 12:50:54;;;;;;;61.40;21.60;;;6.30;99.90;;;;;;4964127;28;20023;-54
2022/01/13 12:53:23;;;;;;;64.45;23.63;;;6.30;99.90;;;;;;4978471;28;20034;-55
2022/01/13 12:56:07;;;;;;;71.03;23.33;;;6.30;99.90;;;;;;4976609;28;20118;-55
2022/01/13 12:58:34;;;;;;;61.60;22.73;;;6.30;99.90;;;;;;4989761;28;20034;-58
2022/01/13 13:01:07;;;;;;;62.67;23.42;;;6.40;99.90;;;;;;4982920;28;20034;-57
2022/01/13 13:03:34;;;;;;;62.97;23.27;;;6.40;99.90;;;;;;4956107;28;20098;-60
2022/01/13 13:06:07;;;;;;;77.53;25.83;;;6.40;99.90;;;;;;4970914;28;20034;-55
2022/01/13 13:08:32;;;;;;;73.00;25.02;;;6.40;99.90;;;;;;4978199;28;20448;-55
2022/01/13 13:11:01;;;;;;;65.55;25.33;;;6.30;99.90;;;;;;4972823;28;20070;-59